createdAt,value
2018-11-20T00:01:40.395Z,7.07
2018-11-20T00:07:01.814Z,7.87
2018-11-20T00:12:10.170Z,6.80
2018-11-20T00:17:34.652Z,7.73
2018-11-20T00:22:43.752Z,7.47
2018-11-20T00:27:47.779Z,7.27
2018-11-20T00:32:59.122Z,8.30
2018-11-20T00:38:01.619Z,9.63
2018-11-20T00:43:19.887Z,7.97
2018-11-20T00:48:45.793Z,8.77
2018-11-20T00:53:48.376Z,7.90
2018-11-20T00:58:48.426Z,10.40
2018-11-20T01:03:56.354Z,7.90
2018-11-20T01:09:03.330Z,8.20
2018-11-20T01:14:09.581Z,7.93
2018-11-20T01:19:13.868Z,9.57
2018-11-20T01:24:11.737Z,9.07
2018-11-20T01:29:20.364Z,8.00
2018-11-20T01:34:46.767Z,9.77
2018-11-20T01:40:00.136Z,7.83
2018-11-20T01:45:06.196Z,6.93
2018-11-20T01:50:14.783Z,6.03
2018-11-20T01:55:24.800Z,9.63
2018-11-20T02:00:31.236Z,8.13
2018-11-20T02:05:34.219Z,6.83
2018-11-20T02:10:48.503Z,5.63
2018-11-20T02:16:14.156Z,7.50
2018-11-20T02:21:24.807Z,6.90
2018-11-20T02:26:31.319Z,8.50
2018-11-20T02:31:57.465Z,7.17
2018-11-20T02:37:17.085Z,6.77
2018-11-20T02:42:39.752Z,7.93
2018-11-20T02:48:04.452Z,7.90
2018-11-20T02:53:12.615Z,7.83
2018-11-20T02:58:17.762Z,8.03
2018-11-20T03:03:21.507Z,7.33
2018-11-20T03:08:47.421Z,7.87
2018-11-20T03:13:55.252Z,8.50
2018-11-20T03:19:13.460Z,8.13
2018-11-20T03:24:30.391Z,8.40
2018-11-20T03:30:13.180Z,8.17
2018-11-20T03:35:19.102Z,7.50
2018-11-20T03:40:31.686Z,7.37
2018-11-20T03:45:51.146Z,9.80
2018-11-20T03:50:57.513Z,15.40
2018-11-20T03:56:06.071Z,18.40
2018-11-20T04:01:16.622Z,12.93
2018-11-20T04:06:24.347Z,12.57
2018-11-20T04:11:28.030Z,10.57
2018-11-20T04:16:34.648Z,13.67
2018-11-20T04:21:40.835Z,11.03
2018-11-20T04:27:03.957Z,16.40
2018-11-20T04:32:12.818Z,10.23
2018-11-20T04:37:25.021Z,10.67
2018-11-20T04:42:39.007Z,7.57
2018-11-20T04:47:45.004Z,8.80
2018-11-20T04:52:52.853Z,9.33
2018-11-20T04:58:02.223Z,12.90
2018-11-20T05:03:10.452Z,10.03
2018-11-20T05:08:33.527Z,7.87
2018-11-20T05:13:43.800Z,8.30
2018-11-20T05:18:52.127Z,10.53
2018-11-20T05:23:59.748Z,10.37
2018-11-20T05:29:09.777Z,12.67
2018-11-20T05:34:37.048Z,10.37
2018-11-20T05:39:42.606Z,12.57
2018-11-20T05:45:02.047Z,11.67
2018-11-20T05:50:07.501Z,11.70
2018-11-20T05:55:16.755Z,9.97
2018-11-20T06:00:20.598Z,11.43
2018-11-20T06:05:29.125Z,10.60
2018-11-20T06:10:44.113Z,10.33
2018-11-20T06:15:48.565Z,12.20
2018-11-20T06:20:54.571Z,11.93
2018-11-20T06:25:59.217Z,10.40
2018-11-20T06:31:07.185Z,11.93
2018-11-20T06:36:17.713Z,10.37
2018-11-20T06:41:22.830Z,10.30
2018-11-20T06:46:44.039Z,11.40
2018-11-20T06:52:08.110Z,10.33
2018-11-20T06:57:30.085Z,11.43
2018-11-20T07:02:53.900Z,12.10
2018-11-20T07:08:20.262Z,10.27
2018-11-20T07:14:00.400Z,12.50
2018-11-20T07:19:03.278Z,12.17
2018-11-20T07:24:09.629Z,12.03
2018-11-20T07:29:23.830Z,12.07
2018-11-20T07:34:38.055Z,12.93
2018-11-20T07:39:53.977Z,12.93
2018-11-20T07:45:14.202Z,17.30
2018-11-20T07:50:22.206Z,15.93
2018-11-20T07:55:35.986Z,16.13
2018-11-20T08:00:47.272Z,11.37
2018-11-20T08:06:01.248Z,11.97
2018-11-20T08:12:55.928Z,14.37
2018-11-20T08:18:02.638Z,11.90
2018-11-20T08:23:16.339Z,11.10
2018-11-20T08:28:24.954Z,11.40
2018-11-20T08:33:38.804Z,12.30
2018-11-20T08:38:52.896Z,12.30
2018-11-20T08:43:56.549Z,12.23
2018-11-20T08:49:01.200Z,10.47
2018-11-20T08:54:02.967Z,13.37
2018-11-20T08:59:17.812Z,10.70
2018-11-20T09:04:33.981Z,11.97
2018-11-20T09:09:41.802Z,11.93
2018-11-20T09:14:44.726Z,12.30
2018-11-20T09:20:11.793Z,10.90
2018-11-20T09:25:16.402Z,11.37
2018-11-20T09:30:41.012Z,12.33
2018-11-20T09:35:45.900Z,20.47
2018-11-20T09:41:41.542Z,11.40
2018-11-20T09:46:58.276Z,10.20
2018-11-20T09:52:03.219Z,10.77
2018-11-20T09:57:08.694Z,11.40
2018-11-20T10:02:24.927Z,12.33
2018-11-20T10:07:29.726Z,12.80
2018-11-20T10:12:52.045Z,12.67
2018-11-20T10:18:01.375Z,11.23
2018-11-20T10:23:06.927Z,13.90
2018-11-20T10:28:14.904Z,16.67
2018-11-20T10:33:32.812Z,15.43
2018-11-20T10:38:37.532Z,13.93
2018-11-20T10:43:42.532Z,13.17
2018-11-20T10:48:49.594Z,19.97
2018-11-20T10:53:55.374Z,18.30
2018-11-20T10:59:04.147Z,14.80
2018-11-20T11:04:18.502Z,14.47
2018-11-20T11:09:38.579Z,14.90
2018-11-20T11:14:45.355Z,13.83
2018-11-20T11:20:06.237Z,16.10
2018-11-20T11:25:28.356Z,14.67
2018-11-20T11:30:42.986Z,15.63
2018-11-20T11:35:46.776Z,22.57
2018-11-20T11:40:52.502Z,17.33
2018-11-20T11:46:03.631Z,16.70
2018-11-20T11:51:09.152Z,15.60
2018-11-20T11:56:11.694Z,16.40
2018-11-20T12:01:27.233Z,14.83
2018-11-20T12:06:38.681Z,14.03
2018-11-20T12:11:52.376Z,13.87
2018-11-20T12:17:09.124Z,13.80
2018-11-20T12:22:15.905Z,14.43
2018-11-20T12:27:27.246Z,14.67
2018-11-20T12:32:32.746Z,13.40
2018-11-20T12:38:01.763Z,14.23
2018-11-20T12:43:04.611Z,18.20
2018-11-20T12:48:12.189Z,14.93
2018-11-20T12:53:15.312Z,13.73
2018-11-20T12:58:22.150Z,17.23
2018-11-20T13:03:41.125Z,16.73
2018-11-20T13:08:58.569Z,13.97
2018-11-20T13:14:04.486Z,15.57
2018-11-20T13:19:12.588Z,17.13
2018-11-20T13:24:25.709Z,17.50
2018-11-20T13:29:31.855Z,16.90
2018-11-20T13:34:51.213Z,27.03
2018-11-20T13:39:54.485Z,19.43
2018-11-20T13:45:04.373Z,22.17
2018-11-20T13:50:14.064Z,23.50
2018-11-20T13:55:32.169Z,18.47
2018-11-20T14:00:59.445Z,24.00
2018-11-20T14:06:21.464Z,32.10
2018-11-20T14:11:24.512Z,26.10
2018-11-20T14:16:32.897Z,19.33
2018-11-20T14:21:57.090Z,17.33
2018-11-20T14:27:13.581Z,22.47
2018-11-20T14:32:33.029Z,20.77
2018-11-20T14:37:48.133Z,20.47
2018-11-20T14:42:51.513Z,21.87
2018-11-20T14:47:57.491Z,20.87
2018-11-20T14:53:19.358Z,22.33
2018-11-20T14:58:29.089Z,27.70
2018-11-20T15:03:46.333Z,25.83
2018-11-20T15:09:20.203Z,25.43
2018-11-20T15:14:26.461Z,27.13
2018-11-20T15:19:32.606Z,33.27
2018-11-20T15:24:36.991Z,30.77
2018-11-20T15:30:00.638Z,27.17
2018-11-20T15:35:10.442Z,20.33
2018-11-20T15:40:36.547Z,21.07
2018-11-20T15:45:42.252Z,23.00
2018-11-20T15:50:47.577Z,21.90
2018-11-20T15:55:49.292Z,23.97
2018-11-20T16:00:59.008Z,22.23
2018-11-20T16:06:00.953Z,20.63
2018-11-20T16:11:05.541Z,23.03
2018-11-20T16:16:13.751Z,28.40
2018-11-20T16:21:33.645Z,21.87
2018-11-20T16:26:34.909Z,20.97
2018-11-20T16:31:38.182Z,20.23
2018-11-20T16:37:06.989Z,23.53
2018-11-20T16:42:20.143Z,22.17
2018-11-20T16:47:25.881Z,24.57
2018-11-20T16:52:29.364Z,24.40
2018-11-20T16:57:44.545Z,21.33
2018-11-20T17:02:51.664Z,20.33
2018-11-20T17:08:12.379Z,23.57
2018-11-20T17:13:13.067Z,23.60
2018-11-20T17:18:23.034Z,27.60
2018-11-20T17:23:36.897Z,23.10
2018-11-20T17:29:06.121Z,32.17
2018-11-20T17:34:13.230Z,23.47
2018-11-20T17:39:34.420Z,23.73
2018-11-20T17:45:03.314Z,27.30
2018-11-20T17:50:21.360Z,22.53
2018-11-20T17:55:33.516Z,21.13
2018-11-20T18:00:39.250Z,21.50
2018-11-20T18:05:58.111Z,21.67
2018-11-20T18:11:16.118Z,26.03
2018-11-20T18:16:29.020Z,22.37
2018-11-20T18:21:37.029Z,24.67
2018-11-20T18:26:38.179Z,28.13
2018-11-20T18:31:47.826Z,27.40
2018-11-20T18:36:58.604Z,31.50
2018-11-20T18:42:09.661Z,27.17
2018-11-20T18:47:06.573Z,25.80
2018-11-20T18:52:31.478Z,26.50
2018-11-20T18:57:42.640Z,26.93
2018-11-20T19:03:04.153Z,27.57
2018-11-20T19:08:06.369Z,26.77
2018-11-20T19:13:28.096Z,28.50
2018-11-20T19:19:09.445Z,29.03
2018-11-20T19:24:22.135Z,34.17
2018-11-20T19:29:29.742Z,29.87
2018-11-20T19:34:42.580Z,33.03
2018-11-20T19:39:50.031Z,38.57
2018-11-20T19:44:58.073Z,26.53
2018-11-20T19:50:24.161Z,34.07
2018-11-20T19:55:39.225Z,30.80
2018-11-20T20:00:53.121Z,29.27
2018-11-20T20:05:59.128Z,26.20
2018-11-20T20:11:22.194Z,29.20
2018-11-20T20:16:28.333Z,28.37
2018-11-20T20:21:35.232Z,26.77
2018-11-20T20:26:41.192Z,26.73
2018-11-20T20:31:44.835Z,28.30
2018-11-20T20:36:48.567Z,26.70
2018-11-20T20:41:55.042Z,24.57
2018-11-20T20:47:02.343Z,26.10
2018-11-20T20:52:06.304Z,24.33
2018-11-20T20:57:21.869Z,24.07
2018-11-20T21:02:30.266Z,25.47
2018-11-20T21:07:43.167Z,23.10
2018-11-20T21:12:46.633Z,24.40
2018-11-20T21:17:57.092Z,22.90
2018-11-20T21:23:20.324Z,22.13
2018-11-20T21:28:28.376Z,26.13
2018-11-20T21:33:51.451Z,26.37
2018-11-20T21:39:16.939Z,23.97
2018-11-20T21:44:37.047Z,24.80
2018-11-20T21:49:44.125Z,26.70
2018-11-20T21:54:49.346Z,27.17
2018-11-20T21:59:55.633Z,27.13
2018-11-20T22:05:00.523Z,28.63
2018-11-20T22:10:03.508Z,29.27
2018-11-20T22:15:09.304Z,30.27
2018-11-20T22:20:29.561Z,29.73
2018-11-20T22:25:34.896Z,29.80
2018-11-20T22:30:44.860Z,27.63
2018-11-20T22:35:50.663Z,29.30
2018-11-20T22:40:57.562Z,26.00
2018-11-20T22:46:02.647Z,26.30
2018-11-20T22:51:15.702Z,23.47
2018-11-20T22:56:23.054Z,23.73
2018-11-20T23:01:31.796Z,25.03
2018-11-20T23:06:38.549Z,25.70
2018-11-20T23:11:26.725Z,24.43
2018-11-20T23:16:14.344Z,23.37
2018-11-20T23:21:02.035Z,22.90
2018-11-20T23:25:47.948Z,20.37
2018-11-20T23:30:37.712Z,21.23
2018-11-20T23:35:27.579Z,20.80
2018-11-20T23:40:15.501Z,21.13
2018-11-20T23:44:59.612Z,22.20
2018-11-20T23:49:44.447Z,20.90
2018-11-20T23:54:34.013Z,20.80
2018-11-20T23:59:23.589Z,19.57
